Time;durP1;ratioP1;P1;durP2;ratioP2;P2;SDS_P1;SDS_P2;PMS_P1;PMS_P2;Temp;Humidity;BMP_temperature;BMP_pressure;BME280_temperature;BME280_humidity;BME280_pressure;Samples;Min_cycle;Max_cycle;Signal;HPM_P1;HPM_P2
2021/06/22 00:02:03;;;;;;;9.60;5.15;;;15.90;99.90;;;;;;5124187;27;20201;-72
2021/06/22 00:04:30;;;;;;;12.77;4.78;;;15.90;99.90;;;;;;5121399;27;20232;-73
2021/06/22 00:06:57;;;;;;;11.20;4.85;;;15.90;99.90;;;;;;5127578;27;20206;-72
2021/06/22 00:09:25;;;;;;;11.73;4.80;;;15.90;99.90;;;;;;5130399;27;20253;-73
2021/06/22 00:11:52;;;;;;;12.32;4.95;;;15.90;99.90;;;;;;5125694;28;20696;-72
2021/06/22 00:14:20;;;;;;;10.20;5.10;;;15.90;99.90;;;;;;5129632;28;20567;-73
2021/06/22 00:16:47;;;;;;;13.05;5.20;;;15.90;99.90;;;;;;5126191;28;20214;-73
2021/06/22 00:19:14;;;;;;;11.30;5.05;;;15.90;99.90;;;;;;5128795;28;20195;-73
2021/06/22 00:21:41;;;;;;;12.02;5.40;;;15.90;99.90;;;;;;5126697;27;20192;-73
2021/06/22 00:24:08;;;;;;;13.10;5.47;;;15.90;99.90;;;;;;5128940;27;20204;-72
2021/06/22 00:26:36;;;;;;;9.23;5.00;;;15.90;99.90;;;;;;5124861;27;20200;-74
2021/06/22 00:29:04;;;;;;;10.63;5.15;;;15.90;99.90;;;;;;5125088;28;20204;-73
2021/06/22 00:31:31;;;;;;;7.45;4.90;;;15.90;99.90;;;;;;5127739;27;20219;-74
2021/06/22 00:33:58;;;;;;;10.25;4.93;;;15.90;99.90;;;;;;5129540;28;20193;-71
2021/06/22 00:36:25;;;;;;;11.73;5.75;;;15.90;99.90;;;;;;5127765;28;20192;-74
2021/06/22 00:38:52;;;;;;;11.90;5.95;;;16.00;99.90;;;;;;5128609;28;20207;-73
2021/06/22 00:41:20;;;;;;;8.02;5.40;;;15.90;99.90;;;;;;5130757;27;20241;-73
2021/06/22 00:43:49;;;;;;;11.05;4.90;;;15.90;99.90;;;;;;5132845;27;20684;-75
2021/06/22 00:46:16;;;;;;;10.60;5.47;;;15.90;99.90;;;;;;5132320;27;20200;-74
2021/06/22 00:48:43;;;;;;;10.25;5.35;;;15.90;99.90;;;;;;5131590;27;20200;-71
2021/06/22 00:51:10;;;;;;;13.00;5.70;;;15.90;99.90;;;;;;5130159;27;20207;-72
2021/06/22 00:53:37;;;;;;;10.35;5.93;;;15.90;99.90;;;;;;5132919;27;20207;-72
2021/06/22 00:56:05;;;;;;;10.23;5.38;;;15.90;99.90;;;;;;5131582;27;20651;-71
2021/06/22 00:58:37;;;;;;;9.27;5.72;;;15.90;99.90;;;;;;5130575;27;20208;-73
2021/06/22 01:01:05;;;;;;;13.70;6.32;;;15.90;99.90;;;;;;5129277;27;20653;-71
2021/06/22 01:03:34;;;;;;;12.68;5.50;;;15.90;99.90;;;;;;5131239;27;20698;-76
2021/06/22 01:06:06;;;;;;;14.02;5.95;;;15.90;99.90;;;;;;5130951;27;20587;-72
2021/06/22 01:08:38;;;;;;;13.35;5.20;;;15.90;99.90;;;;;;5131659;27;20540;-73
2021/06/22 01:11:05;;;;;;;20.50;5.55;;;15.90;99.90;;;;;;5131293;27;20204;-73
2021/06/22 01:13:32;;;;;;;18.30;5.75;;;15.90;99.90;;;;;;5132465;27;20196;-73
2021/06/22 01:15:59;;;;;;;12.10;5.47;;;15.90;99.90;;;;;;5131538;27;20192;-72
2021/06/22 01:18:28;;;;;;;12.45;5.47;;;15.90;99.90;;;;;;5131584;27;20224;-72
2021/06/22 01:21:15;;;;;;;17.23;5.05;;;15.80;99.90;;;;;;5128774;27;20578;-73
2021/06/22 01:23:49;;;;;;;15.75;5.93;;;15.80;99.90;;;;;;5130908;27;21070;-70
2021/06/22 01:26:16;;;;;;;14.93;5.45;;;15.80;99.90;;;;;;5133713;27;20237;-71
2021/06/22 01:28:46;;;;;;;14.63;5.82;;;15.80;99.90;;;;;;5131156;27;20660;-72
2021/06/22 01:31:16;;;;;;;15.80;5.85;;;15.80;99.90;;;;;;5129218;27;20192;-71
2021/06/22 01:33:46;;;;;;;15.57;5.40;;;15.80;99.90;;;;;;5128787;27;20207;-72
2021/06/22 01:36:14;;;;;;;18.10;5.22;;;15.80;99.90;;;;;;5131150;27;20214;-73
2021/06/22 01:38:42;;;;;;;12.27;4.68;;;15.80;99.90;;;;;;5128879;27;20214;-75
2021/06/22 01:41:10;;;;;;;12.73;5.22;;;15.80;99.90;;;;;;5129584;27;20205;-73
2021/06/22 01:43:38;;;;;;;15.73;4.80;;;15.80;99.90;;;;;;5130801;27;20697;-72
2021/06/22 01:46:06;;;;;;;15.43;4.90;;;15.80;99.90;;;;;;5131354;27;20200;-71
2021/06/22 01:48:33;;;;;;;13.45;4.47;;;15.70;99.90;;;;;;5128756;27;20204;-74
2021/06/22 01:51:00;;;;;;;17.98;4.40;;;15.70;99.90;;;;;;5130628;27;20205;-73
2021/06/22 01:53:29;;;;;;;17.00;4.70;;;15.70;99.90;;;;;;5126785;27;20302;-71
2021/06/22 01:56:07;;;;;;;15.60;4.35;;;15.70;99.90;;;;;;5129710;27;20234;-72
2021/06/22 01:58:37;;;;;;;13.35;4.22;;;15.70;99.90;;;;;;5123758;27;20574;-74
2021/06/22 02:01:23;;;;;;;15.57;4.78;;;15.70;99.90;;;;;;5127591;27;20210;-72
2021/06/22 02:04:19;;;;;;;12.20;4.53;;;15.70;99.90;;;;;;5122798;27;20227;-72
2021/06/22 02:06:48;;;;;;;23.33;4.95;;;15.70;99.90;;;;;;5130107;27;20207;-75
2021/06/22 02:09:35;;;;;;;16.08;5.00;;;15.70;99.90;;;;;;5125084;27;20199;-72
2021/06/22 02:12:06;;;;;;;17.10;5.35;;;15.70;99.90;;;;;;5130049;27;20208;-72
2021/06/22 02:14:36;;;;;;;13.48;5.20;;;15.70;99.90;;;;;;5129373;27;20220;-75
2021/06/22 02:17:04;;;;;;;16.95;5.72;;;15.70;99.90;;;;;;5131911;27;20237;-74
2021/06/22 02:19:31;;;;;;;17.65;6.20;;;15.70;99.90;;;;;;5129142;27;20208;-74
2021/06/22 02:22:04;;;;;;;17.20;6.30;;;15.70;99.90;;;;;;5124808;27;20216;-73
2021/06/22 02:24:45;;;;;;;18.90;6.68;;;15.70;99.90;;;;;;5129531;27;20548;-70
2021/06/22 02:27:22;;;;;;;12.90;6.18;;;15.70;99.90;;;;;;5130322;27;20197;-74
2021/06/22 02:29:49;;;;;;;18.90;6.53;;;15.60;99.90;;;;;;5128992;27;20203;-73
2021/06/22 02:32:17;;;;;;;15.02;7.05;;;15.70;99.90;;;;;;5129125;27;20208;-75
2021/06/22 02:34:44;;;;;;;16.08;7.35;;;15.60;99.90;;;;;;5129852;27;20201;-72
2021/06/22 02:37:12;;;;;;;18.77;7.40;;;15.60;99.90;;;;;;5130233;27;20189;-73
2021/06/22 02:39:43;;;;;;;14.25;8.25;;;15.60;99.90;;;;;;5130139;27;20215;-74
2021/06/22 02:42:13;;;;;;;18.15;9.38;;;15.60;99.90;;;;;;5127990;27;20220;-73
2021/06/22 02:44:40;;;;;;;15.57;8.27;;;15.60;99.90;;;;;;5128809;27;20688;-73
2021/06/22 02:47:08;;;;;;;18.88;9.10;;;15.60;99.90;;;;;;5131823;27;20193;-71
2021/06/22 02:49:35;;;;;;;24.63;9.75;;;15.60;99.90;;;;;;5128563;27;20235;-73
2021/06/22 02:52:04;;;;;;;20.65;9.95;;;15.60;99.90;;;;;;5128570;27;20215;-71
2021/06/22 02:54:33;;;;;;;18.35;10.75;;;15.60;99.90;;;;;;5125677;27;20552;-72
2021/06/22 02:57:00;;;;;;;22.75;11.77;;;15.60;99.90;;;;;;5129050;27;20207;-71
2021/06/22 02:59:28;;;;;;;27.88;11.95;;;15.60;99.90;;;;;;5129190;27;20616;-74
2021/06/22 03:01:56;;;;;;;24.95;13.18;;;15.60;99.90;;;;;;5130035;27;20200;-73
2021/06/22 03:04:23;;;;;;;27.35;13.52;;;15.60;99.90;;;;;;5123547;27;20228;-73
2021/06/22 03:06:50;;;;;;;20.17;12.77;;;15.60;99.90;;;;;;5131215;27;20188;-75
2021/06/22 03:09:27;;;;;;;20.40;12.68;;;15.60;99.90;;;;;;5128402;27;20277;-71
2021/06/22 03:11:55;;;;;;;28.83;13.70;;;15.50;99.90;;;;;;5130392;27;20200;-74
2021/06/22 03:14:24;;;;;;;22.90;12.95;;;15.50;99.90;;;;;;5127152;27;20200;-73
2021/06/22 03:17:16;;;;;;;22.17;12.73;;;15.50;99.90;;;;;;5127922;27;20289;-73
2021/06/22 03:19:45;;;;;;;28.30;13.35;;;15.50;99.90;;;;;;5125350;27;20582;-74
2021/06/22 03:22:15;;;;;;;27.83;13.95;;;15.40;99.90;;;;;;5146543;27;20196;-73
2021/06/22 03:24:45;;;;;;;24.85;13.82;;;15.40;99.90;;;;;;5124047;27;20232;-74
2021/06/22 03:27:13;;;;;;;21.38;14.50;;;15.50;99.90;;;;;;5131162;27;20279;-73
2021/06/22 03:30:08;;;;;;;22.02;14.18;;;15.40;99.90;;;;;;5128338;27;20211;-75
2021/06/22 03:32:37;;;;;;;22.58;14.93;;;15.40;99.90;;;;;;5130307;27;20770;-72
2021/06/22 03:35:06;;;;;;;26.75;15.35;;;15.40;99.90;;;;;;5128299;27;20204;-72
2021/06/22 03:37:33;;;;;;;25.80;15.07;;;15.40;99.90;;;;;;5130728;27;20232;-72
2021/06/22 03:40:04;;;;;;;27.85;16.67;;;15.30;99.90;;;;;;5128880;27;20296;-74
2021/06/22 03:42:32;;;;;;;31.23;15.35;;;15.30;99.90;;;;;;5131409;27;20275;-72
2021/06/22 03:44:59;;;;;;;30.02;16.27;;;15.30;99.90;;;;;;5125362;27;20204;-73
2021/06/22 03:47:27;;;;;;;31.35;16.73;;;15.30;99.90;;;;;;5128528;27;20208;-71
2021/06/22 03:49:56;;;;;;;30.55;16.83;;;15.30;99.90;;;;;;5125744;27;20223;-72
2021/06/22 03:52:23;;;;;;;23.20;17.45;;;15.30;99.90;;;;;;5125218;27;20304;-73
2021/06/22 03:54:51;;;;;;;31.67;18.08;;;15.30;99.90;;;;;;5126321;27;20204;-73
2021/06/22 03:57:18;;;;;;;32.88;17.38;;;15.30;99.90;;;;;;5128475;27;20245;-73
2021/06/22 04:00:03;;;;;;;28.65;17.42;;;15.20;99.90;;;;;;5123538;27;20215;-71
2021/06/22 04:02:32;;;;;;;27.20;17.50;;;15.30;99.90;;;;;;5126851;27;20219;-71
2021/06/22 04:05:01;;;;;;;28.27;18.42;;;15.30;99.90;;;;;;5126168;27;20224;-72
2021/06/22 04:07:42;;;;;;;29.08;17.17;;;15.30;99.90;;;;;;5129950;27;20272;-74
2021/06/22 04:10:11;;;;;;;31.60;17.52;;;15.30;99.90;;;;;;5128567;27;20229;-72
2021/06/22 04:12:43;;;;;;;32.72;16.95;;;15.30;99.90;;;;;;5127807;28;20579;-72
2021/06/22 04:15:11;;;;;;;26.80;17.20;;;15.30;99.90;;;;;;5127354;27;20207;-72
2021/06/22 04:17:38;;;;;;;32.78;17.70;;;15.30;99.90;;;;;;5129239;28;20664;-71
2021/06/22 04:20:09;;;;;;;26.02;17.00;;;15.30;99.90;;;;;;5124291;27;20297;-73
2021/06/22 04:22:36;;;;;;;28.27;16.42;;;15.30;99.90;;;;;;5128821;28;20215;-74
2021/06/22 04:25:15;;;;;;;26.52;16.52;;;15.30;99.90;;;;;;5126445;27;20248;-73
2021/06/22 04:27:43;;;;;;;27.23;16.33;;;15.40;99.90;;;;;;5128416;28;20192;-74
2021/06/22 04:30:11;;;;;;;27.52;16.13;;;15.30;99.90;;;;;;5126951;28;20215;-74
2021/06/22 04:32:38;;;;;;;33.42;15.40;;;15.30;99.90;;;;;;5130291;28;20222;-72
2021/06/22 04:35:07;;;;;;;28.77;16.33;;;15.30;99.90;;;;;;5124018;28;20236;-71
2021/06/22 04:37:34;;;;;;;27.67;15.73;;;15.30;99.90;;;;;;5129478;28;20199;-71
2021/06/22 04:40:01;;;;;;;24.80;16.20;;;15.30;99.90;;;;;;5128401;28;21330;-70
2021/06/22 04:42:28;;;;;;;26.88;16.80;;;15.30;99.90;;;;;;5126541;27;20215;-70
2021/06/22 04:44:55;;;;;;;28.25;15.05;;;15.20;99.90;;;;;;5123510;27;20210;-71
2021/06/22 04:47:22;;;;;;;29.40;16.52;;;15.30;99.90;;;;;;5122917;28;20230;-72
2021/06/22 04:49:49;;;;;;;29.52;15.45;;;15.20;99.90;;;;;;5126971;28;20200;-72
2021/06/22 04:52:17;;;;;;;28.30;15.70;;;15.20;99.90;;;;;;5127096;28;20211;-70
2021/06/22 04:54:44;;;;;;;26.58;15.65;;;15.20;99.90;;;;;;5125157;27;20196;-70
2021/06/22 04:57:12;;;;;;;28.95;15.25;;;15.20;99.90;;;;;;5126502;27;20196;-72
2021/06/22 04:59:41;;;;;;;23.65;14.60;;;15.30;99.90;;;;;;5119883;28;20204;-72
2021/06/22 05:02:08;;;;;;;20.92;14.48;;;15.30;99.90;;;;;;5125447;27;20204;-71
2021/06/22 05:04:36;;;;;;;22.98;14.60;;;15.30;99.90;;;;;;5128460;28;20576;-70
2021/06/22 05:07:03;;;;;;;24.52;13.45;;;15.30;99.90;;;;;;5129480;27;20245;-72
2021/06/22 05:09:31;;;;;;;20.70;13.50;;;15.30;99.90;;;;;;5129347;28;20197;-72
2021/06/22 05:11:58;;;;;;;20.95;12.88;;;15.30;99.90;;;;;;5128857;27;20208;-72
2021/06/22 05:14:25;;;;;;;27.63;14.40;;;15.30;99.90;;;;;;5129160;27;20638;-71
2021/06/22 05:16:52;;;;;;;23.33;13.02;;;15.30;99.90;;;;;;5129151;27;20652;-73
2021/06/22 05:19:19;;;;;;;23.30;13.38;;;15.30;99.90;;;;;;5128720;28;20663;-74
2021/06/22 05:21:46;;;;;;;22.25;13.20;;;15.30;99.90;;;;;;5128261;28;20212;-70
2021/06/22 05:24:13;;;;;;;21.80;13.07;;;15.30;99.90;;;;;;5127549;28;20565;-71
2021/06/22 05:26:41;;;;;;;23.23;13.40;;;15.40;99.90;;;;;;5128023;27;20197;-73
2021/06/22 05:29:11;;;;;;;20.45;11.85;;;15.40;99.70;;;;;;5131718;27;20196;-72
2021/06/22 05:31:37;;;;;;;25.67;12.80;;;15.40;99.50;;;;;;5131543;27;20196;-73
2021/06/22 05:34:04;;;;;;;30.20;15.32;;;15.40;99.20;;;;;;5132323;27;20236;-73
2021/06/22 05:36:31;;;;;;;20.85;12.95;;;15.40;99.20;;;;;;5133246;27;20204;-71
2021/06/22 05:38:58;;;;;;;24.17;13.05;;;15.40;99.20;;;;;;5131911;27;20204;-71
2021/06/22 05:41:25;;;;;;;24.45;12.43;;;15.40;99.20;;;;;;5132167;27;20714;-70
2021/06/22 05:43:53;;;;;;;16.40;11.65;;;15.40;99.10;;;;;;5131851;27;20196;-71
2021/06/22 05:46:20;;;;;;;23.48;11.48;;;15.50;99.10;;;;;;5132930;27;20196;-72
2021/06/22 05:48:47;;;;;;;26.85;12.23;;;15.50;99.00;;;;;;5129822;27;20212;-74
2021/06/22 05:51:14;;;;;;;20.27;11.75;;;15.50;98.80;;;;;;5130672;27;20216;-72
2021/06/22 05:53:41;;;;;;;19.77;11.50;;;15.50;98.70;;;;;;5132919;27;20299;-73
2021/06/22 05:56:08;;;;;;;20.40;11.43;;;15.50;98.60;;;;;;5130661;27;20733;-70
2021/06/22 05:58:35;;;;;;;18.98;11.75;;;15.60;98.50;;;;;;5131244;27;20208;-73
2021/06/22 06:01:03;;;;;;;19.50;11.10;;;15.60;98.30;;;;;;5128321;27;20200;-73
2021/06/22 06:03:30;;;;;;;20.98;11.23;;;15.60;98.30;;;;;;5131599;27;20310;-72
2021/06/22 06:05:57;;;;;;;17.92;11.10;;;15.60;98.20;;;;;;5132105;27;20204;-72
2021/06/22 06:08:24;;;;;;;22.13;14.20;;;15.60;98.10;;;;;;5132515;27;20204;-72
2021/06/22 06:10:51;;;;;;;21.10;11.35;;;15.70;97.90;;;;;;5132607;27;20683;-72
2021/06/22 06:13:17;;;;;;;27.63;11.93;;;15.70;97.60;;;;;;5131772;27;20223;-70
2021/06/22 06:15:44;;;;;;;24.63;11.68;;;15.70;97.50;;;;;;5131307;27;20205;-72
2021/06/22 06:18:13;;;;;;;22.25;11.63;;;15.70;97.40;;;;;;5132124;27;20201;-72
2021/06/22 06:20:40;;;;;;;19.77;10.82;;;15.70;97.40;;;;;;5131484;27;20260;-71
2021/06/22 06:23:07;;;;;;;24.38;11.43;;;15.70;97.30;;;;;;5132245;27;20189;-71
2021/06/22 06:25:33;;;;;;;21.73;10.80;;;15.70;97.10;;;;;;5130311;27;20201;-70
2021/06/22 06:28:03;;;;;;;27.63;10.93;;;15.70;96.90;;;;;;5131335;27;20215;-73
2021/06/22 06:30:31;;;;;;;23.85;11.45;;;15.70;96.70;;;;;;5130373;27;20196;-71
2021/06/22 06:32:58;;;;;;;19.63;11.43;;;15.70;96.70;;;;;;5127421;27;20664;-71
2021/06/22 06:35:27;;;;;;;25.13;11.48;;;15.70;96.70;;;;;;5132039;27;20196;-70
2021/06/22 06:37:54;;;;;;;17.52;11.30;;;15.70;96.70;;;;;;5130290;27;20203;-69
2021/06/22 06:40:20;;;;;;;20.05;11.32;;;15.70;96.70;;;;;;5126918;27;20944;-70
2021/06/22 06:42:47;;;;;;;22.60;11.93;;;15.70;96.70;;;;;;5131386;27;20204;-71
2021/06/22 06:45:17;;;;;;;24.60;11.20;;;15.70;96.70;;;;;;5131612;27;20189;-72
2021/06/22 06:47:45;;;;;;;26.08;12.38;;;15.80;96.60;;;;;;5129656;27;20220;-69
2021/06/22 06:50:12;;;;;;;19.63;11.02;;;15.80;96.60;;;;;;5131120;27;20188;-71
2021/06/22 06:52:40;;;;;;;17.65;10.63;;;15.80;96.60;;;;;;5129795;27;20788;-68
2021/06/22 06:55:24;;;;;;;20.98;10.63;;;15.80;96.60;;;;;;5129279;27;20228;-71
2021/06/22 06:57:53;;;;;;;23.85;11.00;;;15.80;96.50;;;;;;5129452;27;20295;-72
2021/06/22 07:00:20;;;;;;;20.40;11.05;;;15.80;96.30;;;;;;5127237;27;20188;-71
2021/06/22 07:02:47;;;;;;;21.27;9.77;;;15.90;96.20;;;;;;5129929;27;20212;-69
2021/06/22 07:05:14;;;;;;;20.67;11.27;;;15.90;96.10;;;;;;5129994;27;20235;-70
2021/06/22 07:07:43;;;;;;;20.60;11.00;;;15.90;96.00;;;;;;5129281;27;20675;-69
2021/06/22 07:10:13;;;;;;;23.55;11.13;;;15.90;95.90;;;;;;5126781;27;20208;-67
2021/06/22 07:12:40;;;;;;;17.73;10.40;;;15.90;95.90;;;;;;5126808;27;20581;-69
2021/06/22 07:15:09;;;;;;;18.92;10.65;;;15.90;95.80;;;;;;5129544;27;20299;-70
2021/06/22 07:17:36;;;;;;;15.27;10.85;;;15.90;95.80;;;;;;5130729;27;20208;-71
2021/06/22 07:20:03;;;;;;;18.65;10.85;;;16.00;95.90;;;;;;5130982;27;20211;-73
2021/06/22 07:22:30;;;;;;;13.75;9.73;;;16.00;95.80;;;;;;5129185;27;20564;-74
2021/06/22 07:24:59;;;;;;;23.55;10.88;;;16.00;95.60;;;;;;5127985;27;20203;-74
2021/06/22 07:27:26;;;;;;;19.02;10.85;;;16.00;95.40;;;;;;5128264;27;20211;-73
2021/06/22 07:29:53;;;;;;;19.83;11.02;;;16.00;95.40;;;;;;5129792;27;21585;-71
2021/06/22 07:32:20;;;;;;;19.50;11.85;;;16.10;95.40;;;;;;5131108;27;20196;-70
2021/06/22 07:34:47;;;;;;;19.10;10.30;;;16.10;95.30;;;;;;5130899;27;20228;-71
2021/06/22 07:37:14;;;;;;;21.52;10.73;;;16.10;95.30;;;;;;5128698;27;20689;-73
2021/06/22 07:39:41;;;;;;;15.57;9.38;;;16.10;95.20;;;;;;5130735;27;20200;-70
2021/06/22 07:42:09;;;;;;;17.92;9.88;;;16.20;95.10;;;;;;5130163;27;20192;-70
2021/06/22 07:44:36;;;;;;;17.95;10.65;;;16.20;94.90;;;;;;5130099;27;20216;-73
2021/06/22 07:47:04;;;;;;;18.15;10.80;;;16.20;94.80;;;;;;5130817;27;20199;-72
2021/06/22 07:49:30;;;;;;;19.98;10.45;;;16.20;94.80;;;;;;5130705;27;20203;-70
2021/06/22 07:51:57;;;;;;;19.45;10.13;;;16.30;94.70;;;;;;5128690;27;20287;-73
2021/06/22 07:54:24;;;;;;;16.15;11.02;;;16.30;94.50;;;;;;5125930;27;20232;-68
2021/06/22 07:56:51;;;;;;;20.77;10.95;;;16.40;94.40;;;;;;5129300;27;20211;-69
2021/06/22 07:59:19;;;;;;;18.50;10.48;;;16.40;94.50;;;;;;5129412;27;20208;-70
2021/06/22 08:01:47;;;;;;;19.30;10.15;;;16.50;94.50;;;;;;5130388;27;20208;-71
2021/06/22 08:04:15;;;;;;;24.48;9.93;;;16.50;94.40;;;;;;5128141;27;20228;-72
2021/06/22 08:06:41;;;;;;;22.88;10.15;;;16.60;94.10;;;;;;5130120;27;20257;-71
2021/06/22 08:09:08;;;;;;;21.00;10.60;;;16.60;94.00;;;;;;5130586;27;20193;-70
2021/06/22 08:11:36;;;;;;;19.67;10.55;;;16.60;93.90;;;;;;5128680;27;20196;-70
2021/06/22 08:14:03;;;;;;;20.80;10.05;;;16.60;93.90;;;;;;5127870;27;20200;-70
2021/06/22 08:16:31;;;;;;;18.67;10.05;;;16.60;93.80;;;;;;5129965;28;21942;-73
2021/06/22 08:18:58;;;;;;;17.48;9.95;;;16.60;93.80;;;;;;5129527;27;20319;-71
2021/06/22 08:21:25;;;;;;;18.00;9.13;;;16.70;93.70;;;;;;5130571;27;20193;-67
2021/06/22 08:23:52;;;;;;;14.15;8.63;;;16.70;93.60;;;;;;5127843;27;20200;-72
2021/06/22 08:26:19;;;;;;;16.38;9.30;;;16.70;93.40;;;;;;5128561;28;20185;-71
2021/06/22 08:28:46;;;;;;;16.88;10.70;;;16.70;93.20;;;;;;5130611;27;20203;-69
2021/06/22 08:31:13;;;;;;;17.95;9.05;;;16.70;93.30;;;;;;5126015;27;20208;-70
2021/06/22 08:33:41;;;;;;;18.02;8.40;;;16.70;93.20;;;;;;5129751;27;20200;-73
2021/06/22 08:36:08;;;;;;;15.35;9.15;;;16.70;93.10;;;;;;5129913;27;20662;-68
2021/06/22 08:38:35;;;;;;;13.15;7.97;;;16.70;93.20;;;;;;5130301;28;20291;-74
2021/06/22 08:41:01;;;;;;;13.20;7.82;;;16.80;93.20;;;;;;5128400;28;20213;-71
2021/06/22 08:43:29;;;;;;;17.10;7.95;;;16.80;93.10;;;;;;5130470;28;20207;-73
2021/06/22 08:45:56;;;;;;;16.73;7.03;;;17.00;93.00;;;;;;5127958;28;20253;-70
2021/06/22 08:48:24;;;;;;;11.73;6.35;;;17.10;92.70;;;;;;5130308;27;20559;-72
2021/06/22 08:50:53;;;;;;;14.05;6.97;;;17.10;92.50;;;;;;5128859;27;20193;-71
2021/06/22 08:53:20;;;;;;;12.85;6.70;;;17.30;92.30;;;;;;5127240;27;20197;-70
2021/06/22 08:55:47;;;;;;;12.93;6.00;;;17.30;92.10;;;;;;5130368;27;20273;-71
2021/06/22 08:58:15;;;;;;;14.32;6.00;;;17.40;91.90;;;;;;5129946;27;20277;-71
2021/06/22 09:00:45;;;;;;;15.35;6.10;;;17.40;91.40;;;;;;5129618;27;20548;-71
2021/06/22 09:03:14;;;;;;;12.40;5.93;;;17.40;91.10;;;;;;5131642;27;20279;-71
2021/06/22 09:05:42;;;;;;;14.45;6.28;;;17.50;90.80;;;;;;5132650;27;20224;-72
2021/06/22 09:08:19;;;;;;;12.35;6.43;;;17.50;90.50;;;;;;5133479;27;20208;-70
2021/06/22 09:10:47;;;;;;;12.55;6.20;;;17.50;90.40;;;;;;5129000;27;20689;-70
2021/06/22 09:13:16;;;;;;;14.35;6.53;;;17.50;90.40;;;;;;5132438;27;20219;-73
2021/06/22 09:15:45;;;;;;;11.52;5.88;;;17.50;90.20;;;;;;5132241;27;20220;-68
2021/06/22 09:18:30;;;;;;;11.57;6.25;;;17.60;90.10;;;;;;5133883;27;20205;-69
2021/06/22 09:20:59;;;;;;;12.65;6.50;;;17.60;90.10;;;;;;5132830;27;20220;-70
2021/06/22 09:23:28;;;;;;;17.02;7.00;;;17.60;90.10;;;;;;5131915;27;20702;-70
2021/06/22 09:25:56;;;;;;;11.18;6.93;;;17.70;90.10;;;;;;5133616;27;20559;-71
2021/06/22 09:28:26;;;;;;;12.98;6.93;;;17.80;90.10;;;;;;5133156;27;20287;-72
2021/06/22 09:30:55;;;;;;;12.07;6.90;;;17.80;90.10;;;;;;5130565;27;20204;-73
2021/06/22 09:33:30;;;;;;;14.65;6.78;;;17.90;90.10;;;;;;5133591;27;20196;-75
2021/06/22 09:36:09;;;;;;;18.15;7.70;;;17.90;90.10;;;;;;5130889;27;20675;-71
2021/06/22 09:38:39;;;;;;;10.90;6.15;;;17.90;90.50;;;;;;5132396;27;20291;-72
2021/06/22 09:41:16;;;;;;;11.80;6.60;;;18.00;90.00;;;;;;5131256;27;20321;-71
2021/06/22 09:43:44;;;;;;;11.25;6.65;;;18.00;89.70;;;;;;5133111;27;20656;-72
2021/06/22 09:46:13;;;;;;;16.05;7.00;;;18.00;89.50;;;;;;5133311;27;20197;-72
2021/06/22 09:48:56;;;;;;;14.88;7.00;;;18.10;89.20;;;;;;5132900;27;20265;-72
2021/06/22 09:51:30;;;;;;;13.68;6.55;;;18.10;88.70;;;;;;5132679;27;20253;-70
2021/06/22 09:54:08;;;;;;;11.90;7.03;;;18.10;88.20;;;;;;5131966;27;20207;-74
2021/06/22 09:56:36;;;;;;;14.98;6.43;;;18.20;87.70;;;;;;5132212;27;20534;-71
2021/06/22 09:59:07;;;;;;;12.63;7.20;;;18.20;87.50;;;;;;5130178;27;20201;-71
2021/06/22 10:01:35;;;;;;;16.05;7.57;;;18.30;87.10;;;;;;5131354;27;20223;-69
2021/06/22 10:04:21;;;;;;;12.75;7.47;;;18.30;87.30;;;;;;5133357;27;20795;-69
2021/06/22 10:06:52;;;;;;;22.05;8.43;;;18.30;87.30;;;;;;5133640;27;20687;-70
2021/06/22 10:09:25;;;;;;;16.90;7.25;;;18.30;87.30;;;;;;5132147;27;20200;-73
2021/06/22 10:12:09;;;;;;;14.15;6.85;;;18.40;87.00;;;;;;5133421;27;20889;-71
2021/06/22 10:14:38;;;;;;;15.70;7.28;;;18.50;86.60;;;;;;5131496;27;20216;-71
2021/06/22 10:17:06;;;;;;;12.10;7.30;;;18.60;86.30;;;;;;5132224;27;20664;-70
2021/06/22 10:19:34;;;;;;;14.00;7.03;;;18.70;86.00;;;;;;5131230;27;20201;-70
2021/06/22 10:22:02;;;;;;;11.60;7.40;;;18.70;86.00;;;;;;5131977;27;20207;-72
2021/06/22 10:24:30;;;;;;;15.63;7.78;;;18.80;85.80;;;;;;5127378;27;20664;-71
2021/06/22 10:26:59;;;;;;;18.25;7.53;;;18.90;85.40;;;;;;5130240;27;20197;-73
2021/06/22 10:29:27;;;;;;;14.15;7.15;;;18.90;85.30;;;;;;5130102;27;20196;-71
2021/06/22 10:31:56;;;;;;;16.80;7.22;;;19.00;85.00;;;;;;5129760;27;20196;-71
2021/06/22 10:34:24;;;;;;;16.83;7.80;;;19.10;85.00;;;;;;5128228;27;20257;-72
2021/06/22 10:36:58;;;;;;;12.80;7.50;;;19.10;85.10;;;;;;5131916;27;20275;-73
2021/06/22 10:39:33;;;;;;;27.02;8.25;;;19.10;84.90;;;;;;5127703;27;20204;-73
2021/06/22 10:42:10;;;;;;;20.52;7.63;;;19.20;84.90;;;;;;5132466;27;20276;-72
2021/06/22 10:44:42;;;;;;;17.40;7.85;;;19.30;84.80;;;;;;5129484;27;20643;-69
2021/06/22 10:47:20;;;;;;;15.30;7.57;;;19.40;84.70;;;;;;5130521;27;20691;-70
2021/06/22 10:50:07;;;;;;;13.32;7.20;;;19.50;84.40;;;;;;5127762;27;20564;-71
2021/06/22 10:53:01;;;;;;;15.98;7.53;;;19.60;84.20;;;;;;5124931;27;20622;-73
2021/06/22 10:55:59;;;;;;;12.40;6.78;;;19.70;83.50;;;;;;5126614;27;20235;-71
2021/06/22 10:58:26;;;;;;;13.38;6.85;;;19.80;83.40;;;;;;5085401;28;20598;-74
2021/06/22 11:01:20;;;;;;;11.65;6.82;;;20.00;83.10;;;;;;5120971;27;20243;-74
2021/06/22 11:04:06;;;;;;;11.93;6.55;;;20.10;82.50;;;;;;5129588;27;20698;-69
2021/06/22 11:06:34;;;;;;;11.32;6.70;;;20.30;81.90;;;;;;5131803;27;20196;-70
2021/06/22 11:09:18;;;;;;;11.35;6.47;;;20.40;81.50;;;;;;5129635;27;20193;-68
2021/06/22 11:11:46;;;;;;;13.02;6.63;;;20.50;80.90;;;;;;5131353;27;20214;-72
2021/06/22 11:14:13;;;;;;;15.38;7.55;;;20.60;80.30;;;;;;5125583;27;20211;-71
2021/06/22 11:16:41;;;;;;;16.33;7.95;;;20.60;79.60;;;;;;5127539;27;20205;-70
2021/06/22 11:19:12;;;;;;;11.07;7.10;;;20.70;79.50;;;;;;5129116;27;20207;-70
2021/06/22 11:21:51;;;;;;;21.05;7.75;;;20.60;79.50;;;;;;5122835;27;20270;-71
2021/06/22 11:24:19;;;;;;;17.52;7.72;;;20.60;79.00;;;;;;5123381;27;20679;-70
2021/06/22 11:27:06;;;;;;;17.85;8.52;;;20.60;78.70;;;;;;5128597;27;20193;-71
2021/06/22 11:29:53;;;;;;;15.02;8.38;;;20.50;78.30;;;;;;5126676;27;20215;-69
2021/06/22 11:32:36;;;;;;;16.55;7.80;;;20.40;78.60;;;;;;5130054;27;20212;-68
2021/06/22 11:35:17;;;;;;;17.02;8.00;;;20.40;78.30;;;;;;5128047;27;20204;-68
2021/06/22 11:37:46;;;;;;;13.85;8.15;;;20.40;78.40;;;;;;5129127;27;20664;-71
2021/06/22 11:40:20;;;;;;;17.98;8.18;;;20.40;78.30;;;;;;5128924;27;20211;-71
2021/06/22 11:43:06;;;;;;;14.88;8.60;;;20.50;78.10;;;;;;5130854;27;20207;-72
2021/06/22 11:45:34;;;;;;;18.23;8.13;;;20.50;78.30;;;;;;5129883;27;20228;-71
2021/06/22 11:48:03;;;;;;;16.30;7.55;;;20.50;78.20;;;;;;5127914;27;20265;-70
2021/06/22 11:50:47;;;;;;;18.98;8.32;;;20.50;78.10;;;;;;5125924;27;20553;-72
2021/06/22 11:53:15;;;;;;;21.67;8.65;;;20.50;77.80;;;;;;5123627;27;20257;-71
2021/06/22 11:55:49;;;;;;;14.48;7.88;;;20.50;77.40;;;;;;5130191;27;20216;-72
2021/06/22 11:58:20;;;;;;;14.73;7.78;;;20.50;78.00;;;;;;5124881;27;20207;-69
2021/06/22 12:00:47;;;;;;;13.57;7.63;;;20.60;77.20;;;;;;5128846;27;20721;-70
2021/06/22 12:03:14;;;;;;;12.32;7.65;;;20.60;77.30;;;;;;5128533;27;20232;-72
2021/06/22 12:05:41;;;;;;;12.95;8.23;;;20.70;77.10;;;;;;5125970;27;20323;-68
2021/06/22 12:08:09;;;;;;;11.82;8.38;;;20.80;76.80;;;;;;5127866;27;20218;-69
2021/06/22 12:10:48;;;;;;;13.68;8.25;;;20.80;76.80;;;;;;5129456;27;20211;-72
2021/06/22 12:13:30;;;;;;;18.20;8.30;;;20.90;76.40;;;;;;5126224;27;20211;-70
2021/06/22 12:15:57;;;;;;;12.18;8.27;;;21.10;75.90;;;;;;5121997;27;20318;-71
2021/06/22 12:18:33;;;;;;;14.82;8.18;;;21.20;75.00;;;;;;5127077;28;20204;-70
2021/06/22 12:21:03;;;;;;;14.70;8.20;;;21.30;74.70;;;;;;5130268;28;20204;-70
2021/06/22 12:23:30;;;;;;;16.08;8.30;;;21.40;74.10;;;;;;5127927;28;20565;-71
2021/06/22 12:25:57;;;;;;;14.77;8.55;;;21.60;73.90;;;;;;5130078;27;20188;-72
2021/06/22 12:28:31;;;;;;;12.25;8.60;;;21.70;72.80;;;;;;5128511;27;20715;-71
2021/06/22 12:31:00;;;;;;;15.90;8.75;;;21.70;71.80;;;;;;5127866;27;20196;-71
2021/06/22 12:33:29;;;;;;;14.10;7.70;;;21.70;71.10;;;;;;5127690;27;20211;-70
2021/06/22 12:36:01;;;;;;;15.23;8.20;;;21.70;71.50;;;;;;5129561;27;20294;-69
2021/06/22 12:38:29;;;;;;;14.45;7.70;;;21.80;70.30;;;;;;5132241;27;20208;-70
2021/06/22 12:40:58;;;;;;;14.13;8.45;;;22.00;69.60;;;;;;5130552;27;20200;-68
2021/06/22 12:43:44;;;;;;;15.48;7.95;;;22.10;69.30;;;;;;5130205;27;20213;-69
2021/06/22 12:46:14;;;;;;;18.10;8.45;;;22.30;69.40;;;;;;5130896;27;20279;-70
2021/06/22 12:48:42;;;;;;;13.18;8.40;;;22.40;69.00;;;;;;5130739;27;20200;-68